createdAt,value
2019-05-21T00:00:28.012Z,101052.70
2019-05-21T00:02:57.053Z,101060.09
2019-05-21T00:05:26.118Z,101063.44
2019-05-21T00:07:55.522Z,101065.14
2019-05-21T00:10:24.606Z,101066.85
2019-05-21T00:12:53.736Z,101067.68
2019-05-21T00:15:22.787Z,101059.77
2019-05-21T00:17:51.826Z,101056.42
2019-05-21T00:20:21.317Z,101053.41
2019-05-21T00:22:50.388Z,101057.47
2019-05-21T00:25:19.438Z,101052.27
2019-05-21T00:27:48.840Z,101052.14
2019-05-21T00:30:53.822Z,101048.80
2019-05-21T00:33:58.294Z,101050.78
2019-05-21T00:37:04.081Z,101056.15
2019-05-21T00:40:08.820Z,101055.67
2019-05-21T00:42:40.988Z,101054.81
2019-05-21T00:45:12.429Z,101053.78
2019-05-21T00:47:41.900Z,101054.65
2019-05-21T00:50:11.280Z,101056.85
2019-05-21T00:52:40.386Z,101053.46
2019-05-21T00:55:09.439Z,101050.97
2019-05-21T00:57:38.863Z,101068.23
2019-05-21T01:00:08.438Z,101059.38
2019-05-21T01:02:37.511Z,101056.81
2019-05-21T01:05:07.179Z,101052.81
2019-05-21T01:07:36.209Z,101049.10
2019-05-21T01:10:06.083Z,101049.81
2019-05-21T01:12:35.117Z,101057.52
2019-05-21T01:15:04.744Z,101060.05
2019-05-21T01:17:33.869Z,101057.86
2019-05-21T01:20:02.935Z,101055.52
2019-05-21T01:22:32.375Z,101054.99
2019-05-21T01:25:01.384Z,101054.99
2019-05-21T01:27:30.786Z,101050.48
2019-05-21T01:29:59.825Z,101053.66
2019-05-21T01:32:29.294Z,101057.53
2019-05-21T01:34:58.470Z,101066.23
2019-05-21T01:37:27.513Z,101064.57
2019-05-21T01:39:56.610Z,101067.07
2019-05-21T01:42:25.641Z,101076.63
2019-05-21T01:44:54.697Z,101076.98
2019-05-21T01:47:24.330Z,101080.14
2019-05-21T01:49:53.365Z,101087.36
2019-05-21T01:52:22.846Z,101090.05
2019-05-21T01:54:52.166Z,101088.70
2019-05-21T01:57:21.664Z,101085.66
2019-05-21T01:59:50.824Z,101083.16
2019-05-21T02:02:20.180Z,101080.81
2019-05-21T02:04:49.296Z,101088.19
2019-05-21T02:07:18.348Z,101088.36
2019-05-21T02:10:05.411Z,101088.72
2019-05-21T02:12:34.496Z,101089.53
2019-05-21T02:15:03.872Z,101092.89
2019-05-21T02:17:32.916Z,101091.73
2019-05-21T02:20:02.271Z,101080.65
2019-05-21T02:22:31.448Z,101084.00
2019-05-21T02:25:00.465Z,101085.32
2019-05-21T02:27:29.545Z,101088.52
2019-05-21T02:29:58.611Z,101101.12
2019-05-21T02:32:27.677Z,101101.12
2019-05-21T02:34:56.742Z,101098.09
2019-05-21T02:37:25.838Z,101073.45
2019-05-21T02:39:54.848Z,101099.59
2019-05-21T02:42:23.937Z,101101.76
2019-05-21T02:44:54.488Z,101107.14
2019-05-21T02:47:23.818Z,101111.86
2019-05-21T02:49:53.260Z,101108.47
2019-05-21T02:52:22.267Z,101112.81
2019-05-21T02:54:51.671Z,101111.84
2019-05-21T02:57:20.754Z,101108.14
2019-05-21T02:59:52.101Z,101110.48
2019-05-21T03:02:36.000Z,101108.81
2019-05-21T03:05:06.266Z,101107.31
2019-05-21T03:07:35.293Z,101110.48
2019-05-21T03:10:04.847Z,101104.45
2019-05-21T03:12:34.260Z,101104.44
2019-05-21T03:15:03.717Z,101107.98
2019-05-21T03:17:33.480Z,101113.16
2019-05-21T03:20:02.564Z,101117.17
2019-05-21T03:22:31.998Z,101118.83
2019-05-21T03:25:02.743Z,101121.52
2019-05-21T03:27:32.200Z,101113.98
2019-05-21T03:30:02.650Z,101114.98
2019-05-21T03:32:31.689Z,101121.86
2019-05-21T03:35:00.842Z,101121.20
2019-05-21T03:37:29.941Z,101122.37
2019-05-21T03:39:59.447Z,101122.55
2019-05-21T03:42:28.496Z,101126.58
2019-05-21T03:45:00.369Z,101124.23
2019-05-21T03:47:28.394Z,101130.62
2019-05-21T03:49:57.875Z,101131.11
2019-05-21T03:52:27.292Z,101133.61
2019-05-21T03:54:56.803Z,101126.23
2019-05-21T03:57:25.833Z,101120.89
2019-05-21T03:59:55.256Z,101128.26
2019-05-21T04:02:24.291Z,101126.24
2019-05-21T04:04:53.377Z,101128.26
2019-05-21T04:07:23.208Z,101140.15
2019-05-21T04:09:52.246Z,101138.81
2019-05-21T04:12:21.288Z,101138.67
2019-05-21T04:14:54.387Z,101127.93
2019-05-21T04:17:42.799Z,101131.61
2019-05-21T04:20:12.413Z,101126.91
2019-05-21T04:22:53.082Z,101132.28
2019-05-21T04:25:23.577Z,101133.45
2019-05-21T04:27:52.840Z,101131.95
2019-05-21T04:30:21.900Z,101130.28
2019-05-21T04:32:50.900Z,101127.42
2019-05-21T04:35:20.027Z,101137.83
2019-05-21T04:37:49.069Z,101134.64
2019-05-21T04:40:18.792Z,101140.66
2019-05-21T04:42:47.798Z,101136.98
2019-05-21T04:45:16.912Z,101143.84
2019-05-21T04:47:45.925Z,101145.02
2019-05-21T04:50:15.122Z,101149.37
2019-05-21T04:52:44.298Z,101159.61
2019-05-21T04:55:13.734Z,101160.11
2019-05-21T04:57:43.099Z,101162.78
2019-05-21T05:00:12.711Z,101160.62
2019-05-21T05:02:41.776Z,101162.63
2019-05-21T05:05:11.587Z,101155.09
2019-05-21T05:07:40.632Z,101164.12
2019-05-21T05:10:10.234Z,101153.91
2019-05-21T05:12:39.287Z,101157.11
2019-05-21T05:15:08.529Z,101165.47
2019-05-21T05:17:37.585Z,101167.52
2019-05-21T05:20:07.181Z,101170.04
2019-05-21T05:22:36.262Z,101175.03
2019-05-21T05:25:05.973Z,101177.23
2019-05-21T05:27:35.093Z,101172.20
2019-05-21T05:30:05.160Z,101185.63
2019-05-21T05:32:34.480Z,101181.25
2019-05-21T05:35:03.694Z,101180.57
2019-05-21T05:37:43.239Z,101190.33
2019-05-21T05:40:04.408Z,101181.95
2019-05-21T05:42:33.629Z,101184.62
2019-05-21T05:45:02.659Z,101195.03
2019-05-21T05:47:31.751Z,101196.72
2019-05-21T05:50:02.582Z,101194.36
2019-05-21T05:52:31.976Z,101202.08
2019-05-21T05:55:01.860Z,101201.07
2019-05-21T05:57:31.450Z,101197.70
2019-05-21T06:00:00.910Z,101205.06
2019-05-21T06:02:29.942Z,101207.08
2019-05-21T06:04:59.011Z,101213.13
2019-05-21T06:07:28.514Z,101203.53
2019-05-21T06:09:58.449Z,101200.67
2019-05-21T06:12:27.599Z,101197.94
2019-05-21T06:14:57.058Z,101209.16
2019-05-21T06:17:26.440Z,101216.39
2019-05-21T06:19:55.782Z,101220.49
2019-05-21T06:22:25.456Z,101213.38
2019-05-21T06:24:54.525Z,101220.53
2019-05-21T06:27:23.566Z,101228.43
2019-05-21T06:29:52.702Z,101228.20
2019-05-21T06:32:21.774Z,101241.96
2019-05-21T06:34:50.851Z,101234.84
2019-05-21T06:37:19.904Z,101238.30
2019-05-21T06:39:49.246Z,101243.69
2019-05-21T06:42:18.276Z,101248.45
2019-05-21T06:44:47.331Z,101247.27
2019-05-21T06:47:16.677Z,101245.20
2019-05-21T06:49:46.273Z,101242.99
2019-05-21T06:52:15.327Z,101242.45
2019-05-21T06:54:44.505Z,101242.77
2019-05-21T06:57:13.549Z,101248.86
2019-05-21T06:59:42.723Z,101246.22
2019-05-21T07:02:11.811Z,101246.89
2019-05-21T07:04:40.888Z,101248.55
2019-05-21T07:07:09.935Z,101251.87
2019-05-21T07:09:38.988Z,101249.09
2019-05-21T07:12:08.427Z,101255.90
2019-05-21T07:14:37.773Z,101259.91
2019-05-21T07:17:06.877Z,101260.25
2019-05-21T07:19:35.970Z,101263.11
2019-05-21T07:22:12.606Z,101265.62
2019-05-21T07:24:36.466Z,101270.84
2019-05-21T07:27:06.017Z,101270.72
2019-05-21T07:29:35.074Z,101276.70
2019-05-21T07:32:04.106Z,101281.49
2019-05-21T07:34:33.154Z,101286.33
2019-05-21T07:37:02.649Z,101292.74
2019-05-21T07:39:31.696Z,101294.37
2019-05-21T07:42:03.810Z,101288.61
2019-05-21T07:44:32.866Z,101292.09
2019-05-21T07:47:02.356Z,101280.06
2019-05-21T07:49:31.673Z,101287.11
2019-05-21T07:52:04.344Z,101285.91
2019-05-21T07:54:33.466Z,101291.55
2019-05-21T07:57:03.002Z,101289.72
2019-05-21T07:59:32.092Z,101299.97
2019-05-21T08:02:01.112Z,101296.69
2019-05-21T08:04:30.192Z,101302.25
2019-05-21T08:06:59.273Z,101300.29
2019-05-21T08:09:28.352Z,101303.95
2019-05-21T08:11:57.832Z,101304.17
2019-05-21T08:14:27.230Z,101301.02
2019-05-21T08:16:56.336Z,101306.42
2019-05-21T08:19:25.465Z,101304.31
2019-05-21T08:21:54.857Z,101309.72
2019-05-21T08:24:24.080Z,101312.09
2019-05-21T08:26:53.171Z,101307.77
2019-05-21T08:29:22.641Z,101304.50
2019-05-21T08:31:52.030Z,101306.52
2019-05-21T08:34:21.204Z,101300.89
2019-05-21T08:36:50.619Z,101301.28
2019-05-21T08:39:28.463Z,101310.64
2019-05-21T08:41:50.525Z,101307.31
2019-05-21T08:44:19.669Z,101304.36
2019-05-21T08:46:48.785Z,101300.28
2019-05-21T08:49:18.160Z,101302.12
2019-05-21T08:51:47.281Z,101300.02
2019-05-21T08:54:18.508Z,101300.22
2019-05-21T08:56:47.525Z,101308.31
2019-05-21T08:59:16.572Z,101301.97
2019-05-21T09:01:45.600Z,101309.92
2019-05-21T09:04:15.079Z,101310.47
2019-05-21T09:06:44.134Z,101302.75
2019-05-21T09:09:13.873Z,101309.83
2019-05-21T09:11:43.275Z,101313.47
2019-05-21T09:14:12.292Z,101307.09
2019-05-21T09:16:41.325Z,101304.85
2019-05-21T09:19:10.376Z,101302.48
2019-05-21T09:21:39.408Z,101302.38
2019-05-21T09:24:08.785Z,101303.64
2019-05-21T09:26:38.257Z,101305.30
2019-05-21T09:29:07.285Z,101310.55
2019-05-21T09:31:36.645Z,101314.28
2019-05-21T09:34:06.387Z,101305.11
2019-05-21T09:36:35.438Z,101309.03
2019-05-21T09:39:05.667Z,101309.02
2019-05-21T09:41:34.748Z,101307.09
2019-05-21T09:44:03.811Z,101318.16
2019-05-21T09:46:32.847Z,101313.91
2019-05-21T09:49:02.196Z,101314.42
2019-05-21T09:51:31.296Z,101312.69
2019-05-21T09:54:00.344Z,101321.70
2019-05-21T09:56:36.621Z,101318.22
2019-05-21T09:59:25.567Z,101318.80
2019-05-21T10:01:57.010Z,101326.70
2019-05-21T10:04:26.095Z,101332.31
2019-05-21T10:06:55.300Z,101328.13
2019-05-21T10:09:24.424Z,101333.67
2019-05-21T10:11:53.436Z,101337.84
2019-05-21T10:14:22.464Z,101337.28
2019-05-21T10:16:51.815Z,101339.84
2019-05-21T10:19:20.861Z,101346.33
2019-05-21T10:21:49.886Z,101340.38
2019-05-21T10:24:18.904Z,101341.24
2019-05-21T10:26:48.202Z,101346.13
2019-05-21T10:29:17.631Z,101344.05
2019-05-21T10:31:46.771Z,101338.33
2019-05-21T10:34:16.487Z,101334.20
2019-05-21T10:36:45.985Z,101338.70
2019-05-21T10:39:15.196Z,101343.38
2019-05-21T10:41:46.140Z,101346.25
2019-05-21T10:44:15.346Z,101349.34
2019-05-21T10:46:44.506Z,101347.62
2019-05-21T10:49:13.904Z,101349.70
2019-05-21T10:51:42.973Z,101352.88
2019-05-21T10:54:12.397Z,101355.25
2019-05-21T10:56:47.822Z,101346.52
2019-05-21T10:59:13.206Z,101352.69
2019-05-21T11:02:07.071Z,101356.53
2019-05-21T11:04:58.371Z,101356.31
2019-05-21T11:07:28.133Z,101352.40
2019-05-21T11:09:57.520Z,101357.64
2019-05-21T11:12:26.993Z,101366.11
2019-05-21T11:14:56.021Z,101365.86
2019-05-21T11:17:25.085Z,101367.77
2019-05-21T11:19:54.170Z,101362.19
2019-05-21T11:22:23.772Z,101370.20
2019-05-21T11:24:52.835Z,101362.59
2019-05-21T11:27:22.806Z,101361.53
2019-05-21T11:29:52.029Z,101363.16
2019-05-21T11:32:21.573Z,101364.86
2019-05-21T11:34:50.859Z,101366.81
2019-05-21T11:37:20.509Z,101367.34
2019-05-21T11:39:49.882Z,101366.08
2019-05-21T11:42:19.004Z,101370.77
2019-05-21T11:44:48.039Z,101374.64
2019-05-21T11:47:17.176Z,101368.73
2019-05-21T11:49:46.244Z,101368.06
2019-05-21T11:52:15.305Z,101380.52
2019-05-21T11:54:44.747Z,101377.82
2019-05-21T11:57:13.917Z,101366.69
2019-05-21T11:59:42.960Z,101375.98
2019-05-21T12:02:12.656Z,101366.16
2019-05-21T12:04:41.871Z,101370.17
2019-05-21T12:07:10.917Z,101377.50
2019-05-21T12:09:40.395Z,101379.28
2019-05-21T12:12:09.625Z,101384.81
2019-05-21T12:14:38.979Z,101379.77
2019-05-21T12:17:08.082Z,101385.93
2019-05-21T12:19:37.176Z,101383.25
2019-05-21T12:22:06.740Z,101385.28
2019-05-21T12:24:35.849Z,101383.02
2019-05-21T12:27:05.076Z,101388.11
2019-05-21T12:29:34.537Z,101385.77
2019-05-21T12:32:04.195Z,101384.57
2019-05-21T12:34:33.545Z,101374.61
2019-05-21T12:37:02.597Z,101386.45
2019-05-21T12:39:31.641Z,101393.28
2019-05-21T12:42:01.237Z,101384.91
2019-05-21T12:44:30.290Z,101382.13
2019-05-21T12:46:59.702Z,101388.86
2019-05-21T12:49:28.783Z,101389.21
2019-05-21T12:51:57.833Z,101387.77
2019-05-21T12:54:27.580Z,101391.23
2019-05-21T12:56:57.394Z,101392.91
2019-05-21T12:59:26.423Z,101392.48
2019-05-21T13:01:56.412Z,101394.75
2019-05-21T13:04:25.470Z,101404.13
2019-05-21T13:06:54.713Z,101398.66
2019-05-21T13:09:33.001Z,101402.53
2019-05-21T13:11:54.923Z,101401.13
2019-05-21T13:14:23.959Z,101404.81
2019-05-21T13:16:52.981Z,101406.02
2019-05-21T13:19:22.028Z,101401.45
2019-05-21T13:21:51.056Z,101413.32
2019-05-21T13:24:20.330Z,101405.63
2019-05-21T13:26:49.794Z,101414.43
2019-05-21T13:29:19.198Z,101410.22
2019-05-21T13:31:48.185Z,101413.61
2019-05-21T13:34:17.229Z,101410.28
2019-05-21T13:36:46.984Z,101417.03
2019-05-21T13:39:16.060Z,101415.91
2019-05-21T13:41:45.377Z,101411.72
2019-05-21T13:44:14.550Z,101412.48
2019-05-21T13:46:43.969Z,101413.70
2019-05-21T13:49:13.491Z,101423.70
2019-05-21T13:51:42.658Z,101420.61
2019-05-21T13:54:12.012Z,101414.54
2019-05-21T13:56:41.106Z,101414.70
2019-05-21T13:59:10.271Z,101418.05
2019-05-21T14:01:41.552Z,101416.90
2019-05-21T14:04:11.037Z,101424.23
2019-05-21T14:06:40.427Z,101426.17
2019-05-21T14:09:10.369Z,101420.00
2019-05-21T14:11:39.449Z,101419.76
2019-05-21T14:14:08.507Z,101414.36
2019-05-21T14:16:37.837Z,101418.59
2019-05-21T14:19:06.869Z,101430.17
2019-05-21T14:21:35.876Z,101421.89
2019-05-21T14:24:05.426Z,101433.36
2019-05-21T14:26:34.474Z,101434.73
2019-05-21T14:29:03.569Z,101440.78
2019-05-21T14:31:32.685Z,101433.83
2019-05-21T14:34:02.512Z,101444.47
2019-05-21T14:36:31.586Z,101435.75
2019-05-21T14:39:00.964Z,101426.22
2019-05-21T14:41:30.032Z,101439.78
2019-05-21T14:43:59.491Z,101428.67
2019-05-21T14:46:28.822Z,101435.67
2019-05-21T14:48:57.862Z,101428.87
2019-05-21T14:51:27.317Z,101425.75
2019-05-21T14:54:03.181Z,101431.69
2019-05-21T14:56:32.551Z,101420.41
2019-05-21T14:59:01.558Z,101426.59
2019-05-21T15:01:30.666Z,101433.19
2019-05-21T15:04:00.136Z,101420.22
2019-05-21T15:06:29.207Z,101420.53
2019-05-21T15:08:58.640Z,101425.35
2019-05-21T15:11:27.711Z,101424.77
2019-05-21T15:13:56.815Z,101423.91
2019-05-21T15:16:25.896Z,101423.92
2019-05-21T15:18:55.326Z,101432.30
2019-05-21T15:21:35.282Z,101427.19
2019-05-21T15:24:04.904Z,101432.41
2019-05-21T15:26:34.388Z,101427.46
2019-05-21T15:29:03.446Z,101431.22
2019-05-21T15:31:32.532Z,101435.12
2019-05-21T15:34:01.600Z,101436.75
2019-05-21T15:36:30.720Z,101432.44
2019-05-21T15:38:59.754Z,101440.51
2019-05-21T15:41:28.878Z,101432.27
2019-05-21T15:43:58.559Z,101432.81
2019-05-21T15:46:27.726Z,101437.76
2019-05-21T15:48:57.089Z,101433.69
2019-05-21T15:51:26.126Z,101440.51
2019-05-21T15:53:55.198Z,101438.01
2019-05-21T15:56:24.502Z,101438.28
2019-05-21T15:58:53.540Z,101433.77
2019-05-21T16:01:24.211Z,101438.01
2019-05-21T16:03:53.260Z,101436.01
2019-05-21T16:06:22.393Z,101433.22
2019-05-21T16:08:51.873Z,101445.42
2019-05-21T16:11:28.461Z,101442.22
2019-05-21T16:13:52.067Z,101441.92
2019-05-21T16:16:23.485Z,101444.25
2019-05-21T16:18:52.242Z,101444.23
2019-05-21T16:21:21.378Z,101446.69
2019-05-21T16:23:50.404Z,101446.77
2019-05-21T16:26:19.479Z,101444.97
2019-05-21T16:28:48.483Z,101446.34
2019-05-21T16:31:17.614Z,101445.86
2019-05-21T16:33:46.648Z,101441.11
2019-05-21T16:36:15.685Z,101439.42
2019-05-21T16:38:45.046Z,101439.73
2019-05-21T16:41:14.140Z,101437.17
2019-05-21T16:43:43.206Z,101437.30
2019-05-21T16:46:12.448Z,101438.67
2019-05-21T16:48:41.589Z,101436.27
2019-05-21T16:51:11.373Z,101437.78
2019-05-21T16:53:40.746Z,101434.43
2019-05-21T16:56:09.762Z,101437.04
2019-05-21T16:58:38.832Z,101434.92
2019-05-21T17:01:07.941Z,101430.52
2019-05-21T17:03:37.673Z,101433.70
2019-05-21T17:06:08.037Z,101437.17
2019-05-21T17:08:37.151Z,101441.57
2019-05-21T17:11:06.368Z,101436.42
2019-05-21T17:13:35.632Z,101448.69
2019-05-21T17:16:05.784Z,101444.76
2019-05-21T17:18:34.926Z,101443.39
2019-05-21T17:21:08.550Z,101447.94
2019-05-21T17:23:38.773Z,101442.64
2019-05-21T17:26:08.570Z,101440.51
2019-05-21T17:28:38.127Z,101448.69
2019-05-21T17:31:07.277Z,101444.56
2019-05-21T17:33:36.323Z,101453.30
2019-05-21T17:36:05.471Z,101445.10
2019-05-21T17:38:35.344Z,101457.91
2019-05-21T17:41:04.369Z,101449.90
2019-05-21T17:43:33.543Z,101459.31
2019-05-21T17:46:02.565Z,101460.46
2019-05-21T17:48:31.749Z,101461.89
2019-05-21T17:51:01.209Z,101468.73
2019-05-21T17:53:30.296Z,101465.35
2019-05-21T17:55:59.680Z,101472.23
2019-05-21T17:58:28.994Z,101467.70
2019-05-21T18:01:01.158Z,101470.41
2019-05-21T18:03:31.595Z,101469.59
2019-05-21T18:06:02.342Z,101479.11
2019-05-21T18:08:32.315Z,101478.66
2019-05-21T18:11:02.065Z,101487.43
2019-05-21T18:13:31.710Z,101484.91
2019-05-21T18:16:00.975Z,101486.08
2019-05-21T18:18:30.200Z,101492.77
2019-05-21T18:20:59.797Z,101490.98
2019-05-21T18:23:29.305Z,101489.95
2019-05-21T18:25:58.719Z,101493.12
2019-05-21T18:28:27.901Z,101501.19
2019-05-21T18:30:56.919Z,101500.97
2019-05-21T18:33:26.556Z,101502.60
2019-05-21T18:35:55.626Z,101503.02
2019-05-21T18:38:24.681Z,101503.67
2019-05-21T18:40:54.165Z,101508.42
2019-05-21T18:43:23.419Z,101506.51
2019-05-21T18:45:52.518Z,101510.84
2019-05-21T18:48:21.558Z,101516.97
2019-05-21T18:50:50.703Z,101516.80
2019-05-21T18:53:20.130Z,101523.52
2019-05-21T18:55:49.585Z,101520.23
2019-05-21T18:58:19.573Z,101531.72
2019-05-21T19:00:48.653Z,101527.69
2019-05-21T19:03:25.454Z,101533.78
2019-05-21T19:05:48.650Z,101525.80
2019-05-21T19:08:17.710Z,101528.87
2019-05-21T19:10:46.943Z,101537.61
2019-05-21T19:13:16.243Z,101537.80
2019-05-21T19:15:45.314Z,101535.89
2019-05-21T19:18:14.347Z,101538.44
2019-05-21T19:20:44.065Z,101547.62
2019-05-21T19:23:13.150Z,101546.98
2019-05-21T19:25:42.180Z,101546.45
2019-05-21T19:28:11.223Z,101547.53
2019-05-21T19:30:40.273Z,101546.92
2019-05-21T19:33:09.310Z,101548.94
2019-05-21T19:35:38.385Z,101549.34
2019-05-21T19:38:07.441Z,101553.58
2019-05-21T19:40:36.488Z,101549.80
2019-05-21T19:43:05.515Z,101559.08
2019-05-21T19:45:34.560Z,101555.80
2019-05-21T19:48:03.658Z,101560.88
2019-05-21T19:50:32.713Z,101563.97
2019-05-21T19:53:01.882Z,101570.10
2019-05-21T19:55:31.022Z,101569.58
2019-05-21T19:58:00.142Z,101570.59
2019-05-21T20:00:30.956Z,101572.87
2019-05-21T20:03:00.046Z,101576.98
2019-05-21T20:05:29.136Z,101579.09
2019-05-21T20:07:58.211Z,101580.22
2019-05-21T20:10:27.732Z,101589.81
2019-05-21T20:12:57.244Z,101596.67
2019-05-21T20:15:26.584Z,101587.61
2019-05-21T20:18:07.057Z,101594.06
2019-05-21T20:20:27.628Z,101592.08
2019-05-21T20:22:57.948Z,101590.13
2019-05-21T20:25:27.945Z,101593.59
2019-05-21T20:27:57.424Z,101595.64
2019-05-21T20:30:26.484Z,101598.02
2019-05-21T20:32:56.303Z,101600.76
2019-05-21T20:35:28.866Z,101597.72
2019-05-21T20:37:58.192Z,101589.63
2019-05-21T20:40:27.944Z,101590.48
2019-05-21T20:42:57.393Z,101592.11
2019-05-21T20:45:27.579Z,101587.38
2019-05-21T20:47:57.398Z,101589.45
2019-05-21T20:50:26.640Z,101583.39
2019-05-21T20:52:56.577Z,101585.11
2019-05-21T20:55:25.845Z,101588.12
2019-05-21T20:57:55.547Z,101591.45
2019-05-21T21:00:30.372Z,101591.76
2019-05-21T21:02:59.795Z,101598.69
2019-05-21T21:05:28.969Z,101587.95
2019-05-21T21:07:58.355Z,101595.38
2019-05-21T21:10:27.760Z,101588.35
2019-05-21T21:12:56.818Z,101588.86
2019-05-21T21:15:26.202Z,101585.50
2019-05-21T21:17:55.260Z,101585.70
2019-05-21T21:20:24.997Z,101590.59
2019-05-21T21:22:54.545Z,101589.44
2019-05-21T21:25:24.827Z,101588.92
2019-05-21T21:27:53.963Z,101584.03
2019-05-21T21:30:23.585Z,101584.47
2019-05-21T21:32:53.687Z,101590.52
2019-05-21T21:35:22.896Z,101586.33
2019-05-21T21:37:52.473Z,101592.99
2019-05-21T21:40:22.190Z,101588.88
2019-05-21T21:42:51.544Z,101590.00
2019-05-21T21:45:20.962Z,101596.21
2019-05-21T21:47:50.994Z,101593.20
2019-05-21T21:50:21.890Z,101596.20
2019-05-21T21:52:51.566Z,101601.94
2019-05-21T21:55:20.979Z,101600.45
2019-05-21T21:57:50.146Z,101600.59
2019-05-21T22:01:19.611Z,101602.61
2019-05-21T22:03:48.969Z,101600.95
2019-05-21T22:06:19.158Z,101598.94
2019-05-21T22:08:48.608Z,101600.64
2019-05-21T22:11:18.578Z,101597.09
2019-05-21T22:13:48.405Z,101598.74
2019-05-21T22:16:17.636Z,101598.59
2019-05-21T22:18:47.514Z,101597.17
2019-05-21T22:21:17.127Z,101592.47
2019-05-21T22:23:46.495Z,101590.09
2019-05-21T22:26:15.626Z,101597.16
2019-05-21T22:28:44.670Z,101595.66
2019-05-21T22:31:13.688Z,101593.30
2019-05-21T22:33:42.828Z,101593.09
2019-05-21T22:36:12.447Z,101591.73
2019-05-21T22:38:41.494Z,101590.16
2019-05-21T22:41:11.414Z,101587.25
2019-05-21T22:43:40.890Z,101587.19
2019-05-21T22:46:10.147Z,101593.91
2019-05-21T22:48:39.177Z,101597.77
2019-05-21T22:51:08.392Z,101590.30
2019-05-21T22:53:37.395Z,101594.95
2019-05-21T22:56:06.616Z,101582.77
2019-05-21T22:58:35.706Z,101582.77
2019-05-21T23:01:07.773Z,101614.25
2019-05-21T23:03:37.203Z,101587.31
2019-05-21T23:06:06.576Z,101603.33
2019-05-21T23:08:36.719Z,101584.76
2019-05-21T23:11:06.219Z,101597.73
2019-05-21T23:13:35.866Z,101597.73
2019-05-21T23:16:06.296Z,101596.55
2019-05-21T23:18:35.468Z,101595.56
2019-05-21T23:21:08.459Z,101583.75
2019-05-21T23:23:37.822Z,101589.77
2019-05-21T23:26:07.732Z,101589.77
2019-05-21T23:28:36.838Z,101590.67
2019-05-21T23:31:06.126Z,101590.20
2019-05-21T23:33:36.513Z,101595.77
2019-05-21T23:36:05.685Z,101588.73
2019-05-21T23:38:36.675Z,101597.30
2019-05-21T23:41:06.085Z,101592.13
2019-05-21T23:43:35.852Z,101593.53
2019-05-21T23:46:07.477Z,101589.84
2019-05-21T23:48:37.207Z,101590.17
2019-05-21T23:51:06.294Z,101590.20
2019-05-21T23:53:35.323Z,101592.20
2019-05-21T23:56:04.423Z,101585.83
2019-05-21T23:58:33.580Z,101586.88
